sensor_id;sensor_type;location;lat;lon;timestamp;P1;durP1;ratioP1;P2;durP2;ratioP2
47589;SDS011;33316;52.298;9.056;2022-10-03T00:01:24;5.18;;;0.98;;
47589;SDS011;33316;52.298;9.056;2022-10-03T00:04:09;3.55;;;0.85;;
47589;SDS011;33316;52.298;9.056;2022-10-03T00:06:54;7.57;;;1.67;;
47589;SDS011;33316;52.298;9.056;2022-10-03T00:09:33;4.90;;;0.98;;
47589;SDS011;33316;52.298;9.056;2022-10-03T00:12:15;5.68;;;0.80;;
47589;SDS011;33316;52.298;9.056;2022-10-03T00:15:01;7.07;;;1.10;;
47589;SDS011;33316;52.298;9.056;2022-10-03T00:17:37;4.63;;;0.82;;
47589;SDS011;33316;52.298;9.056;2022-10-03T00:20:13;6.72;;;1.10;;
47589;SDS011;33316;52.298;9.056;2022-10-03T00:22:58;4.40;;;1.00;;
47589;SDS011;33316;52.298;9.056;2022-10-03T00:25:32;7.90;;;1.20;;
47589;SDS011;33316;52.298;9.056;2022-10-03T00:28:14;5.63;;;1.02;;
47589;SDS011;33316;52.298;9.056;2022-10-03T00:31:00;4.13;;;0.90;;
47589;SDS011;33316;52.298;9.056;2022-10-03T00:33:38;7.60;;;1.00;;
47589;SDS011;33316;52.298;9.056;2022-10-03T00:36:19;5.50;;;1.02;;
47589;SDS011;33316;52.298;9.056;2022-10-03T00:39:02;7.80;;;1.65;;
47589;SDS011;33316;52.298;9.056;2022-10-03T00:41:50;6.53;;;1.33;;
47589;SDS011;33316;52.298;9.056;2022-10-03T00:47:51;7.20;;;1.67;;
47589;SDS011;33316;52.298;9.056;2022-10-03T00:53:26;3.72;;;0.98;;
47589;SDS011;33316;52.298;9.056;2022-10-03T00:58:49;2.60;;;0.60;;
47589;SDS011;33316;52.298;9.056;2022-10-03T01:01:32;6.68;;;1.80;;
47589;SDS011;33316;52.298;9.056;2022-10-03T01:04:08;5.78;;;1.23;;
47589;SDS011;33316;52.298;9.056;2022-10-03T01:06:51;6.63;;;1.52;;
47589;SDS011;33316;52.298;9.056;2022-10-03T01:09:41;6.60;;;1.33;;
47589;SDS011;33316;52.298;9.056;2022-10-03T01:12:28;5.43;;;1.33;;
47589;SDS011;33316;52.298;9.056;2022-10-03T01:15:12;7.20;;;1.15;;
47589;SDS011;33316;52.298;9.056;2022-10-03T01:17:52;7.55;;;1.25;;
47589;SDS011;33316;52.298;9.056;2022-10-03T01:20:29;6.50;;;1.23;;
47589;SDS011;33316;52.298;9.056;2022-10-03T01:23:13;5.43;;;1.00;;
47589;SDS011;33316;52.298;9.056;2022-10-03T01:26:04;5.00;;;0.98;;
47589;SDS011;33316;52.298;9.056;2022-10-03T01:28:47;9.68;;;1.42;;
47589;SDS011;33316;52.298;9.056;2022-10-03T01:31:40;5.20;;;1.00;;
47589;SDS011;33316;52.298;9.056;2022-10-03T01:34:12;4.90;;;1.13;;
47589;SDS011;33316;52.298;9.056;2022-10-03T01:36:51;8.82;;;1.50;;
47589;SDS011;33316;52.298;9.056;2022-10-03T01:39:27;7.38;;;1.45;;
47589;SDS011;33316;52.298;9.056;2022-10-03T01:42:03;6.53;;;1.48;;
47589;SDS011;33316;52.298;9.056;2022-10-03T01:44:39;6.75;;;1.23;;
47589;SDS011;33316;52.298;9.056;2022-10-03T01:47:19;4.30;;;1.02;;
47589;SDS011;33316;52.298;9.056;2022-10-03T01:49:54;5.47;;;1.27;;
47589;SDS011;33316;52.298;9.056;2022-10-03T01:52:29;6.88;;;1.38;;
47589;SDS011;33316;52.298;9.056;2022-10-03T01:55:04;5.10;;;1.00;;
47589;SDS011;33316;52.298;9.056;2022-10-03T01:57:41;5.38;;;0.90;;
47589;SDS011;33316;52.298;9.056;2022-10-03T02:00:16;7.13;;;1.25;;
47589;SDS011;33316;52.298;9.056;2022-10-03T02:02:46;2.92;;;0.85;;
47589;SDS011;33316;52.298;9.056;2022-10-03T02:05:21;4.05;;;1.02;;
47589;SDS011;33316;52.298;9.056;2022-10-03T02:07:54;6.32;;;1.30;;
47589;SDS011;33316;52.298;9.056;2022-10-03T02:10:34;8.30;;;1.45;;
47589;SDS011;33316;52.298;9.056;2022-10-03T02:13:10;8.60;;;1.02;;
47589;SDS011;33316;52.298;9.056;2022-10-03T02:15:45;6.20;;;0.85;;
47589;SDS011;33316;52.298;9.056;2022-10-03T02:18:22;3.92;;;0.80;;
47589;SDS011;33316;52.298;9.056;2022-10-03T02:20:56;6.15;;;0.95;;
47589;SDS011;33316;52.298;9.056;2022-10-03T02:23:37;6.55;;;1.38;;
47589;SDS011;33316;52.298;9.056;2022-10-03T02:29:19;4.50;;;1.10;;
47589;SDS011;33316;52.298;9.056;2022-10-03T02:32:04;4.82;;;0.82;;
47589;SDS011;33316;52.298;9.056;2022-10-03T02:35:04;5.15;;;0.98;;
47589;SDS011;33316;52.298;9.056;2022-10-03T02:37:46;5.30;;;0.85;;
47589;SDS011;33316;52.298;9.056;2022-10-03T02:46:26;6.07;;;1.02;;
47589;SDS011;33316;52.298;9.056;2022-10-03T02:52:30;4.28;;;1.02;;
47589;SDS011;33316;52.298;9.056;2022-10-03T02:58:28;8.57;;;1.42;;
47589;SDS011;33316;52.298;9.056;2022-10-03T03:04:38;4.65;;;0.85;;
47589;SDS011;33316;52.298;9.056;2022-10-03T03:07:29;3.45;;;0.85;;
47589;SDS011;33316;52.298;9.056;2022-10-03T03:10:09;5.80;;;0.93;;
47589;SDS011;33316;52.298;9.056;2022-10-03T03:13:07;8.13;;;1.27;;
47589;SDS011;33316;52.298;9.056;2022-10-03T03:16:09;5.82;;;1.00;;
47589;SDS011;33316;52.298;9.056;2022-10-03T03:19:09;5.40;;;1.05;;
47589;SDS011;33316;52.298;9.056;2022-10-03T03:21:47;3.85;;;0.60;;
47589;SDS011;33316;52.298;9.056;2022-10-03T03:24:26;6.47;;;1.13;;
47589;SDS011;33316;52.298;9.056;2022-10-03T03:27:17;4.85;;;0.98;;
47589;SDS011;33316;52.298;9.056;2022-10-03T03:29:56;2.95;;;0.90;;
47589;SDS011;33316;52.298;9.056;2022-10-03T03:32:32;4.32;;;0.80;;
47589;SDS011;33316;52.298;9.056;2022-10-03T03:35:17;4.35;;;0.70;;
47589;SDS011;33316;52.298;9.056;2022-10-03T03:37:55;5.03;;;0.93;;
47589;SDS011;33316;52.298;9.056;2022-10-03T03:40:39;4.07;;;0.75;;
47589;SDS011;33316;52.298;9.056;2022-10-03T03:43:24;6.07;;;1.27;;
47589;SDS011;33316;52.298;9.056;2022-10-03T03:46:09;5.20;;;1.10;;
47589;SDS011;33316;52.298;9.056;2022-10-03T03:48:52;6.00;;;0.77;;
47589;SDS011;33316;52.298;9.056;2022-10-03T03:51:36;6.53;;;0.95;;
47589;SDS011;33316;52.298;9.056;2022-10-03T04:00:19;3.90;;;0.73;;
47589;SDS011;33316;52.298;9.056;2022-10-03T04:03:02;4.43;;;0.88;;
47589;SDS011;33316;52.298;9.056;2022-10-03T04:05:58;3.83;;;0.70;;
47589;SDS011;33316;52.298;9.056;2022-10-03T04:08:40;6.15;;;0.80;;
47589;SDS011;33316;52.298;9.056;2022-10-03T04:11:26;4.97;;;0.75;;
47589;SDS011;33316;52.298;9.056;2022-10-03T04:14:13;3.42;;;0.80;;
47589;SDS011;33316;52.298;9.056;2022-10-03T04:17:12;4.68;;;0.80;;
47589;SDS011;33316;52.298;9.056;2022-10-03T04:20:15;1.98;;;0.65;;
47589;SDS011;33316;52.298;9.056;2022-10-03T04:22:57;6.18;;;1.10;;
47589;SDS011;33316;52.298;9.056;2022-10-03T04:25:37;5.43;;;1.23;;
47589;SDS011;33316;52.298;9.056;2022-10-03T04:28:33;2.75;;;0.68;;
47589;SDS011;33316;52.298;9.056;2022-10-03T04:31:17;4.97;;;0.70;;
47589;SDS011;33316;52.298;9.056;2022-10-03T04:33:59;4.07;;;0.70;;
47589;SDS011;33316;52.298;9.056;2022-10-03T04:36:50;4.45;;;0.80;;
47589;SDS011;33316;52.298;9.056;2022-10-03T04:39:33;4.28;;;1.00;;
47589;SDS011;33316;52.298;9.056;2022-10-03T04:42:09;7.53;;;1.17;;
47589;SDS011;33316;52.298;9.056;2022-10-03T04:44:46;7.78;;;0.90;;
47589;SDS011;33316;52.298;9.056;2022-10-03T04:47:27;7.20;;;1.10;;
47589;SDS011;33316;52.298;9.056;2022-10-03T04:50:02;4.63;;;1.08;;
47589;SDS011;33316;52.298;9.056;2022-10-03T04:52:36;3.85;;;0.80;;
47589;SDS011;33316;52.298;9.056;2022-10-03T04:55:14;5.50;;;0.93;;
47589;SDS011;33316;52.298;9.056;2022-10-03T04:57:49;8.32;;;1.00;;
47589;SDS011;33316;52.298;9.056;2022-10-03T05:00:22;4.35;;;0.80;;
47589;SDS011;33316;52.298;9.056;2022-10-03T05:02:53;2.08;;;0.68;;
47589;SDS011;33316;52.298;9.056;2022-10-03T05:05:38;4.47;;;1.00;;
47589;SDS011;33316;52.298;9.056;2022-10-03T05:08:16;4.57;;;0.77;;
47589;SDS011;33316;52.298;9.056;2022-10-03T05:11:03;3.42;;;0.60;;
47589;SDS011;33316;52.298;9.056;2022-10-03T05:13:58;4.28;;;0.90;;
47589;SDS011;33316;52.298;9.056;2022-10-03T05:16:36;4.85;;;0.93;;
47589;SDS011;33316;52.298;9.056;2022-10-03T05:22:13;4.20;;;0.82;;
47589;SDS011;33316;52.298;9.056;2022-10-03T05:24:49;4.07;;;0.80;;
47589;SDS011;33316;52.298;9.056;2022-10-03T05:27:24;2.80;;;0.70;;
47589;SDS011;33316;52.298;9.056;2022-10-03T05:30:01;4.68;;;0.90;;
47589;SDS011;33316;52.298;9.056;2022-10-03T05:32:33;3.95;;;0.75;;
47589;SDS011;33316;52.298;9.056;2022-10-03T05:35:16;3.22;;;0.80;;
47589;SDS011;33316;52.298;9.056;2022-10-03T05:38:01;5.68;;;1.40;;
47589;SDS011;33316;52.298;9.056;2022-10-03T05:40:59;3.08;;;0.98;;
47589;SDS011;33316;52.298;9.056;2022-10-03T05:43:33;3.40;;;1.00;;
47589;SDS011;33316;52.298;9.056;2022-10-03T05:46:14;3.05;;;0.90;;
47589;SDS011;33316;52.298;9.056;2022-10-03T05:48:47;4.75;;;0.98;;
47589;SDS011;33316;52.298;9.056;2022-10-03T05:54:27;6.65;;;1.02;;
47589;SDS011;33316;52.298;9.056;2022-10-03T05:57:24;5.65;;;1.00;;
47589;SDS011;33316;52.298;9.056;2022-10-03T06:00:17;7.95;;;1.27;;
47589;SDS011;33316;52.298;9.056;2022-10-03T06:02:58;5.32;;;1.05;;
47589;SDS011;33316;52.298;9.056;2022-10-03T06:05:59;3.43;;;0.80;;
47589;SDS011;33316;52.298;9.056;2022-10-03T06:08:44;4.45;;;0.90;;
47589;SDS011;33316;52.298;9.056;2022-10-03T06:14:15;4.65;;;0.95;;
47589;SDS011;33316;52.298;9.056;2022-10-03T06:16:54;5.82;;;1.05;;
47589;SDS011;33316;52.298;9.056;2022-10-03T06:19:32;5.93;;;1.27;;
47589;SDS011;33316;52.298;9.056;2022-10-03T06:25:22;9.88;;;1.67;;
47589;SDS011;33316;52.298;9.056;2022-10-03T06:31:30;4.72;;;1.00;;
47589;SDS011;33316;52.298;9.056;2022-10-03T06:34:31;6.72;;;1.00;;
47589;SDS011;33316;52.298;9.056;2022-10-03T06:40:19;3.13;;;0.70;;
47589;SDS011;33316;52.298;9.056;2022-10-03T06:46:45;4.07;;;0.90;;
47589;SDS011;33316;52.298;9.056;2022-10-03T06:49:47;2.03;;;0.80;;
47589;SDS011;33316;52.298;9.056;2022-10-03T06:59:03;4.80;;;1.20;;
47589;SDS011;33316;52.298;9.056;2022-10-03T07:08:36;6.13;;;1.37;;
47589;SDS011;33316;52.298;9.056;2022-10-03T07:11:24;4.80;;;1.00;;
47589;SDS011;33316;52.298;9.056;2022-10-03T07:17:17;7.22;;;1.10;;
47589;SDS011;33316;52.298;9.056;2022-10-03T07:20:01;6.55;;;1.48;;
47589;SDS011;33316;52.298;9.056;2022-10-03T07:23:19;4.07;;;1.27;;
47589;SDS011;33316;52.298;9.056;2022-10-03T07:26:24;3.95;;;1.20;;
47589;SDS011;33316;52.298;9.056;2022-10-03T07:29:20;3.83;;;1.15;;
47589;SDS011;33316;52.298;9.056;2022-10-03T07:31:56;3.22;;;1.02;;
47589;SDS011;33316;52.298;9.056;2022-10-03T07:34:49;7.18;;;1.33;;
47589;SDS011;33316;52.298;9.056;2022-10-03T07:37:43;4.78;;;1.38;;
47589;SDS011;33316;52.298;9.056;2022-10-03T07:41:14;3.08;;;1.02;;
47589;SDS011;33316;52.298;9.056;2022-10-03T07:44:09;5.93;;;1.33;;
47589;SDS011;33316;52.298;9.056;2022-10-03T07:47:03;4.35;;;1.27;;
47589;SDS011;33316;52.298;9.056;2022-10-03T07:50:02;5.60;;;1.85;;
47589;SDS011;33316;52.298;9.056;2022-10-03T07:52:51;4.35;;;1.50;;
47589;SDS011;33316;52.298;9.056;2022-10-03T07:55:36;3.67;;;1.02;;
47589;SDS011;33316;52.298;9.056;2022-10-03T07:58:20;5.05;;;1.10;;
47589;SDS011;33316;52.298;9.056;2022-10-03T08:01:17;9.10;;;1.77;;
47589;SDS011;33316;52.298;9.056;2022-10-03T08:04:12;4.72;;;1.13;;
47589;SDS011;33316;52.298;9.056;2022-10-03T08:07:03;5.78;;;1.10;;
47589;SDS011;33316;52.298;9.056;2022-10-03T08:09:51;8.80;;;1.80;;
47589;SDS011;33316;52.298;9.056;2022-10-03T08:12:31;8.15;;;1.40;;
47589;SDS011;33316;52.298;9.056;2022-10-03T08:15:21;6.65;;;2.03;;
47589;SDS011;33316;52.298;9.056;2022-10-03T08:17:56;5.88;;;1.80;;
47589;SDS011;33316;52.298;9.056;2022-10-03T08:20:41;5.70;;;1.45;;
47589;SDS011;33316;52.298;9.056;2022-10-03T08:26:32;6.20;;;1.35;;
47589;SDS011;33316;52.298;9.056;2022-10-03T08:29:30;5.53;;;1.23;;
47589;SDS011;33316;52.298;9.056;2022-10-03T08:32:28;7.40;;;1.83;;
47589;SDS011;33316;52.298;9.056;2022-10-03T08:38:46;4.47;;;1.17;;
47589;SDS011;33316;52.298;9.056;2022-10-03T08:41:34;4.20;;;1.23;;
47589;SDS011;33316;52.298;9.056;2022-10-03T08:44:34;5.43;;;1.20;;
47589;SDS011;33316;52.298;9.056;2022-10-03T08:47:27;6.13;;;1.08;;
47589;SDS011;33316;52.298;9.056;2022-10-03T08:50:25;6.30;;;1.10;;
47589;SDS011;33316;52.298;9.056;2022-10-03T08:56:13;3.40;;;0.77;;
47589;SDS011;33316;52.298;9.056;2022-10-03T08:58:54;3.90;;;1.00;;
47589;SDS011;33316;52.298;9.056;2022-10-03T09:01:56;7.13;;;1.27;;
47589;SDS011;33316;52.298;9.056;2022-10-03T09:05:00;5.45;;;1.20;;
47589;SDS011;33316;52.298;9.056;2022-10-03T09:17:17;5.35;;;1.10;;
47589;SDS011;33316;52.298;9.056;2022-10-03T09:23:45;8.13;;;1.17;;
47589;SDS011;33316;52.298;9.056;2022-10-03T09:36:13;3.83;;;0.93;;
47589;SDS011;33316;52.298;9.056;2022-10-03T09:39:17;4.40;;;1.20;;
47589;SDS011;33316;52.298;9.056;2022-10-03T09:42:19;7.38;;;2.05;;
47589;SDS011;33316;52.298;9.056;2022-10-03T09:45:20;4.22;;;1.23;;
47589;SDS011;33316;52.298;9.056;2022-10-03T09:50:57;4.70;;;1.02;;
47589;SDS011;33316;52.298;9.056;2022-10-03T10:00:15;3.95;;;0.70;;
47589;SDS011;33316;52.298;9.056;2022-10-03T10:06:11;8.05;;;1.20;;
47589;SDS011;33316;52.298;9.056;2022-10-03T10:15:30;5.57;;;1.10;;
47589;SDS011;33316;52.298;9.056;2022-10-03T10:18:20;5.35;;;1.00;;
47589;SDS011;33316;52.298;9.056;2022-10-03T10:21:25;6.05;;;1.10;;
47589;SDS011;33316;52.298;9.056;2022-10-03T10:24:20;5.95;;;1.20;;
47589;SDS011;33316;52.298;9.056;2022-10-03T10:27:19;6.28;;;1.00;;
47589;SDS011;33316;52.298;9.056;2022-10-03T10:30:18;5.30;;;0.77;;
47589;SDS011;33316;52.298;9.056;2022-10-03T10:33:10;4.38;;;0.73;;
47589;SDS011;33316;52.298;9.056;2022-10-03T10:36:09;5.22;;;1.10;;
47589;SDS011;33316;52.298;9.056;2022-10-03T10:45:32;5.43;;;0.65;;
47589;SDS011;33316;52.298;9.056;2022-10-03T10:57:36;3.95;;;0.57;;
47589;SDS011;33316;52.298;9.056;2022-10-03T11:00:28;4.63;;;1.02;;
47589;SDS011;33316;52.298;9.056;2022-10-03T11:09:33;3.38;;;0.80;;
47589;SDS011;33316;52.298;9.056;2022-10-03T11:31:03;2.20;;;0.57;;
47589;SDS011;33316;52.298;9.056;2022-10-03T11:34:14;3.97;;;0.80;;
47589;SDS011;33316;52.298;9.056;2022-10-03T11:37:19;5.38;;;0.77;;
47589;SDS011;33316;52.298;9.056;2022-10-03T11:39:58;3.83;;;0.60;;
47589;SDS011;33316;52.298;9.056;2022-10-03T11:42:40;2.85;;;0.73;;
47589;SDS011;33316;52.298;9.056;2022-10-03T11:45:17;4.07;;;0.60;;
47589;SDS011;33316;52.298;9.056;2022-10-03T11:47:52;4.28;;;0.57;;
47589;SDS011;33316;52.298;9.056;2022-10-03T11:50:31;2.88;;;0.50;;
47589;SDS011;33316;52.298;9.056;2022-10-03T11:53:09;4.07;;;1.00;;
47589;SDS011;33316;52.298;9.056;2022-10-03T11:55:45;4.40;;;0.57;;
47589;SDS011;33316;52.298;9.056;2022-10-03T11:58:23;2.85;;;0.60;;
47589;SDS011;33316;52.298;9.056;2022-10-03T12:01:02;1.95;;;0.68;;
47589;SDS011;33316;52.298;9.056;2022-10-03T12:03:43;4.60;;;0.60;;
47589;SDS011;33316;52.298;9.056;2022-10-03T12:06:21;4.35;;;0.60;;
47589;SDS011;33316;52.298;9.056;2022-10-03T12:09:18;1.80;;;0.63;;
47589;SDS011;33316;52.298;9.056;2022-10-03T12:11:54;2.05;;;0.50;;
47589;SDS011;33316;52.298;9.056;2022-10-03T12:14:25;2.70;;;0.40;;
47589;SDS011;33316;52.298;9.056;2022-10-03T12:17:00;2.00;;;0.80;;
47589;SDS011;33316;52.298;9.056;2022-10-03T12:19:35;4.78;;;0.60;;
47589;SDS011;33316;52.298;9.056;2022-10-03T12:22:11;1.67;;;0.40;;
47589;SDS011;33316;52.298;9.056;2022-10-03T12:27:21;1.45;;;0.30;;
47589;SDS011;33316;52.298;9.056;2022-10-03T12:30:04;3.13;;;0.50;;
47589;SDS011;33316;52.298;9.056;2022-10-03T12:32:42;2.60;;;0.52;;
47589;SDS011;33316;52.298;9.056;2022-10-03T12:35:22;3.17;;;0.40;;
47589;SDS011;33316;52.298;9.056;2022-10-03T12:38:01;2.63;;;0.52;;
47589;SDS011;33316;52.298;9.056;2022-10-03T12:40:40;1.30;;;0.30;;
47589;SDS011;33316;52.298;9.056;2022-10-03T12:43:15;3.25;;;0.43;;
47589;SDS011;33316;52.298;9.056;2022-10-03T12:45:54;1.40;;;0.50;;
47589;SDS011;33316;52.298;9.056;2022-10-03T12:48:30;1.67;;;0.30;;
47589;SDS011;33316;52.298;9.056;2022-10-03T12:51:08;2.95;;;0.38;;
47589;SDS011;33316;52.298;9.056;2022-10-03T12:53:47;2.10;;;0.57;;
47589;SDS011;33316;52.298;9.056;2022-10-03T12:56:24;2.28;;;0.40;;
47589;SDS011;33316;52.298;9.056;2022-10-03T12:59:06;2.65;;;0.50;;
47589;SDS011;33316;52.298;9.056;2022-10-03T13:04:21;4.82;;;1.08;;
47589;SDS011;33316;52.298;9.056;2022-10-03T13:07:01;5.03;;;0.90;;
47589;SDS011;33316;52.298;9.056;2022-10-03T13:09:51;2.28;;;0.60;;
47589;SDS011;33316;52.298;9.056;2022-10-03T13:12:41;2.50;;;0.45;;
47589;SDS011;33316;52.298;9.056;2022-10-03T13:18:17;2.38;;;0.50;;
47589;SDS011;33316;52.298;9.056;2022-10-03T13:21:08;1.90;;;0.43;;
47589;SDS011;33316;52.298;9.056;2022-10-03T13:23:41;3.17;;;0.40;;
47589;SDS011;33316;52.298;9.056;2022-10-03T13:26:15;1.13;;;0.32;;
47589;SDS011;33316;52.298;9.056;2022-10-03T13:28:56;4.95;;;0.50;;
47589;SDS011;33316;52.298;9.056;2022-10-03T13:31:38;2.60;;;0.30;;
47589;SDS011;33316;52.298;9.056;2022-10-03T13:34:20;4.07;;;0.50;;
47589;SDS011;33316;52.298;9.056;2022-10-03T13:36:52;2.33;;;0.30;;
47589;SDS011;33316;52.298;9.056;2022-10-03T13:39:23;3.03;;;0.50;;
47589;SDS011;33316;52.298;9.056;2022-10-03T13:41:57;3.20;;;0.70;;
47589;SDS011;33316;52.298;9.056;2022-10-03T13:44:37;1.25;;;0.32;;
47589;SDS011;33316;52.298;9.056;2022-10-03T13:47:21;2.08;;;0.50;;
47589;SDS011;33316;52.298;9.056;2022-10-03T13:49:54;2.67;;;0.65;;
47589;SDS011;33316;52.298;9.056;2022-10-03T13:52:27;2.88;;;0.50;;
47589;SDS011;33316;52.298;9.056;2022-10-03T13:55:14;1.88;;;0.77;;
47589;SDS011;33316;52.298;9.056;2022-10-03T13:57:48;4.43;;;0.80;;
47589;SDS011;33316;52.298;9.056;2022-10-03T14:00:29;1.27;;;0.43;;
47589;SDS011;33316;52.298;9.056;2022-10-03T14:03:07;2.28;;;0.50;;
47589;SDS011;33316;52.298;9.056;2022-10-03T14:08:48;2.40;;;0.60;;
47589;SDS011;33316;52.298;9.056;2022-10-03T14:11:32;2.65;;;0.35;;
47589;SDS011;33316;52.298;9.056;2022-10-03T14:14:10;3.45;;;0.60;;
47589;SDS011;33316;52.298;9.056;2022-10-03T14:17:05;3.55;;;0.50;;
47589;SDS011;33316;52.298;9.056;2022-10-03T14:19:38;2.45;;;0.50;;
47589;SDS011;33316;52.298;9.056;2022-10-03T14:22:19;2.25;;;0.57;;
47589;SDS011;33316;52.298;9.056;2022-10-03T14:24:56;3.00;;;0.40;;
47589;SDS011;33316;52.298;9.056;2022-10-03T14:27:35;4.78;;;1.23;;
47589;SDS011;33316;52.298;9.056;2022-10-03T14:30:17;3.47;;;1.02;;
47589;SDS011;33316;52.298;9.056;2022-10-03T14:32:51;4.95;;;0.82;;
47589;SDS011;33316;52.298;9.056;2022-10-03T14:35:32;3.53;;;0.80;;
47589;SDS011;33316;52.298;9.056;2022-10-03T14:38:06;2.45;;;0.63;;
47589;SDS011;33316;52.298;9.056;2022-10-03T14:40:41;3.38;;;0.65;;
47589;SDS011;33316;52.298;9.056;2022-10-03T14:43:18;2.08;;;0.47;;
47589;SDS011;33316;52.298;9.056;2022-10-03T14:45:54;1.42;;;0.45;;
47589;SDS011;33316;52.298;9.056;2022-10-03T14:48:28;1.70;;;0.60;;
47589;SDS011;33316;52.298;9.056;2022-10-03T14:51:00;4.78;;;0.60;;
47589;SDS011;33316;52.298;9.056;2022-10-03T14:53:34;2.88;;;0.60;;
47589;SDS011;33316;52.298;9.056;2022-10-03T14:56:04;2.47;;;0.50;;
47589;SDS011;33316;52.298;9.056;2022-10-03T14:58:36;4.70;;;0.63;;
47589;SDS011;33316;52.298;9.056;2022-10-03T15:01:11;2.75;;;0.70;;
47589;SDS011;33316;52.298;9.056;2022-10-03T15:03:43;3.67;;;0.50;;
47589;SDS011;33316;52.298;9.056;2022-10-03T15:06:29;2.65;;;0.60;;
47589;SDS011;33316;52.298;9.056;2022-10-03T15:09:24;3.88;;;0.73;;
47589;SDS011;33316;52.298;9.056;2022-10-03T15:11:58;2.47;;;0.50;;
47589;SDS011;33316;52.298;9.056;2022-10-03T15:14:31;2.53;;;0.38;;
47589;SDS011;33316;52.298;9.056;2022-10-03T15:17:00;3.83;;;0.50;;
47589;SDS011;33316;52.298;9.056;2022-10-03T15:19:34;2.55;;;0.43;;
47589;SDS011;33316;52.298;9.056;2022-10-03T15:22:19;1.88;;;0.57;;
47589;SDS011;33316;52.298;9.056;2022-10-03T15:24:52;1.75;;;0.30;;
47589;SDS011;33316;52.298;9.056;2022-10-03T15:27:22;5.60;;;1.65;;
47589;SDS011;33316;52.298;9.056;2022-10-03T15:29:52;3.97;;;1.00;;
47589;SDS011;33316;52.298;9.056;2022-10-03T15:32:22;1.92;;;0.70;;
47589;SDS011;33316;52.298;9.056;2022-10-03T15:34:53;5.18;;;0.40;;
47589;SDS011;33316;52.298;9.056;2022-10-03T15:37:25;2.55;;;0.50;;
47589;SDS011;33316;52.298;9.056;2022-10-03T15:39:58;3.08;;;0.68;;
47589;SDS011;33316;52.298;9.056;2022-10-03T15:42:28;2.47;;;0.50;;
47589;SDS011;33316;52.298;9.056;2022-10-03T15:44:59;2.35;;;0.22;;
47589;SDS011;33316;52.298;9.056;2022-10-03T15:47:30;1.95;;;0.40;;
47589;SDS011;33316;52.298;9.056;2022-10-03T15:50:00;1.73;;;0.35;;
47589;SDS011;33316;52.298;9.056;2022-10-03T15:52:32;3.83;;;0.73;;
47589;SDS011;33316;52.298;9.056;2022-10-03T15:55:05;2.78;;;0.55;;
47589;SDS011;33316;52.298;9.056;2022-10-03T15:57:42;1.98;;;0.60;;
47589;SDS011;33316;52.298;9.056;2022-10-03T16:00:17;2.38;;;0.30;;
47589;SDS011;33316;52.298;9.056;2022-10-03T16:02:49;1.95;;;0.40;;
47589;SDS011;33316;52.298;9.056;2022-10-03T16:05:23;2.20;;;0.30;;
47589;SDS011;33316;52.298;9.056;2022-10-03T16:07:54;2.00;;;0.50;;
47589;SDS011;33316;52.298;9.056;2022-10-03T16:10:26;1.70;;;0.65;;
47589;SDS011;33316;52.298;9.056;2022-10-03T16:12:56;1.80;;;0.75;;
47589;SDS011;33316;52.298;9.056;2022-10-03T16:15:31;3.28;;;0.85;;
47589;SDS011;33316;52.298;9.056;2022-10-03T16:21:09;3.38;;;0.70;;
47589;SDS011;33316;52.298;9.056;2022-10-03T16:23:41;2.88;;;0.55;;
47589;SDS011;33316;52.298;9.056;2022-10-03T16:26:11;1.80;;;0.60;;
47589;SDS011;33316;52.298;9.056;2022-10-03T16:28:45;1.98;;;0.52;;
47589;SDS011;33316;52.298;9.056;2022-10-03T16:31:17;2.45;;;0.68;;
47589;SDS011;33316;52.298;9.056;2022-10-03T16:33:48;2.65;;;0.50;;
47589;SDS011;33316;52.298;9.056;2022-10-03T16:36:20;2.67;;;0.60;;
47589;SDS011;33316;52.298;9.056;2022-10-03T16:38:50;1.27;;;0.60;;
47589;SDS011;33316;52.298;9.056;2022-10-03T16:41:20;4.20;;;0.77;;
47589;SDS011;33316;52.298;9.056;2022-10-03T16:43:55;2.83;;;0.70;;
47589;SDS011;33316;52.298;9.056;2022-10-03T16:46:24;2.15;;;0.60;;
47589;SDS011;33316;52.298;9.056;2022-10-03T16:48:54;2.97;;;0.60;;
47589;SDS011;33316;52.298;9.056;2022-10-03T16:51:52;3.08;;;0.65;;
47589;SDS011;33316;52.298;9.056;2022-10-03T16:54:22;2.30;;;0.75;;
47589;SDS011;33316;52.298;9.056;2022-10-03T16:56:50;3.70;;;1.38;;
47589;SDS011;33316;52.298;9.056;2022-10-03T16:59:23;3.47;;;1.00;;
47589;SDS011;33316;52.298;9.056;2022-10-03T17:01:51;3.08;;;1.15;;
47589;SDS011;33316;52.298;9.056;2022-10-03T17:04:22;2.00;;;0.85;;
47589;SDS011;33316;52.298;9.056;2022-10-03T17:06:54;2.65;;;0.70;;
47589;SDS011;33316;52.298;9.056;2022-10-03T17:09:26;2.03;;;0.50;;
47589;SDS011;33316;52.298;9.056;2022-10-03T17:11:58;3.08;;;0.88;;
47589;SDS011;33316;52.298;9.056;2022-10-03T17:14:28;2.42;;;0.50;;
47589;SDS011;33316;52.298;9.056;2022-10-03T17:17:02;0.75;;;0.50;;
47589;SDS011;33316;52.298;9.056;2022-10-03T17:19:34;1.85;;;0.50;;
47589;SDS011;33316;52.298;9.056;2022-10-03T17:22:08;1.98;;;0.50;;
47589;SDS011;33316;52.298;9.056;2022-10-03T17:24:41;1.98;;;0.50;;
47589;SDS011;33316;52.298;9.056;2022-10-03T17:27:17;2.65;;;0.60;;
47589;SDS011;33316;52.298;9.056;2022-10-03T17:29:50;2.05;;;0.75;;
47589;SDS011;33316;52.298;9.056;2022-10-03T17:32:22;2.72;;;0.77;;
47589;SDS011;33316;52.298;9.056;2022-10-03T17:34:54;2.67;;;0.50;;
47589;SDS011;33316;52.298;9.056;2022-10-03T17:37:37;2.30;;;0.75;;
47589;SDS011;33316;52.298;9.056;2022-10-03T17:40:43;2.35;;;1.20;;
47589;SDS011;33316;52.298;9.056;2022-10-03T17:43:16;3.42;;;0.75;;
47589;SDS011;33316;52.298;9.056;2022-10-03T17:45:53;2.22;;;0.65;;
47589;SDS011;33316;52.298;9.056;2022-10-03T17:48:31;2.10;;;0.70;;
47589;SDS011;33316;52.298;9.056;2022-10-03T17:51:09;2.28;;;0.60;;
47589;SDS011;33316;52.298;9.056;2022-10-03T17:54:04;2.50;;;0.68;;
47589;SDS011;33316;52.298;9.056;2022-10-03T17:56:36;3.00;;;0.70;;
47589;SDS011;33316;52.298;9.056;2022-10-03T17:59:11;3.38;;;0.80;;
47589;SDS011;33316;52.298;9.056;2022-10-03T18:01:41;2.05;;;0.73;;
47589;SDS011;33316;52.298;9.056;2022-10-03T18:04:13;2.15;;;0.63;;
47589;SDS011;33316;52.298;9.056;2022-10-03T18:06:43;2.67;;;0.68;;
47589;SDS011;33316;52.298;9.056;2022-10-03T18:09:27;1.35;;;0.65;;
47589;SDS011;33316;52.298;9.056;2022-10-03T18:12:02;1.58;;;0.55;;
47589;SDS011;33316;52.298;9.056;2022-10-03T18:14:39;2.63;;;0.80;;
47589;SDS011;33316;52.298;9.056;2022-10-03T18:17:12;2.97;;;0.93;;
47589;SDS011;33316;52.298;9.056;2022-10-03T18:19:47;4.20;;;1.05;;
47589;SDS011;33316;52.298;9.056;2022-10-03T18:22:22;2.95;;;0.70;;
47589;SDS011;33316;52.298;9.056;2022-10-03T18:24:56;1.90;;;0.82;;
47589;SDS011;33316;52.298;9.056;2022-10-03T18:28:06;1.85;;;0.90;;
47589;SDS011;33316;52.298;9.056;2022-10-03T18:30:43;4.03;;;0.90;;
47589;SDS011;33316;52.298;9.056;2022-10-03T18:33:14;2.92;;;1.00;;
47589;SDS011;33316;52.298;9.056;2022-10-03T18:35:44;3.43;;;1.20;;
47589;SDS011;33316;52.298;9.056;2022-10-03T18:38:14;3.08;;;1.15;;
47589;SDS011;33316;52.298;9.056;2022-10-03T18:40:48;3.78;;;0.95;;
47589;SDS011;33316;52.298;9.056;2022-10-03T18:43:21;1.80;;;0.95;;
47589;SDS011;33316;52.298;9.056;2022-10-03T18:45:54;3.13;;;1.05;;
47589;SDS011;33316;52.298;9.056;2022-10-03T18:48:28;3.58;;;0.98;;
47589;SDS011;33316;52.298;9.056;2022-10-03T18:51:02;3.60;;;1.30;;
47589;SDS011;33316;52.298;9.056;2022-10-03T18:53:36;3.92;;;0.93;;
47589;SDS011;33316;52.298;9.056;2022-10-03T18:56:10;4.70;;;1.20;;
47589;SDS011;33316;52.298;9.056;2022-10-03T18:58:42;4.03;;;1.20;;
47589;SDS011;33316;52.298;9.056;2022-10-03T19:01:13;2.25;;;0.95;;
47589;SDS011;33316;52.298;9.056;2022-10-03T19:03:45;2.33;;;1.08;;
47589;SDS011;33316;52.298;9.056;2022-10-03T19:06:18;4.13;;;1.10;;
47589;SDS011;33316;52.298;9.056;2022-10-03T19:08:50;2.95;;;1.25;;
47589;SDS011;33316;52.298;9.056;2022-10-03T19:11:22;4.20;;;1.55;;